createdAt,value
2022-10-28T00:00:32.696Z,10.67
2022-10-28T00:03:01.323Z,9.37
2022-10-28T00:05:28.605Z,12.70
2022-10-28T00:07:55.710Z,12.20
2022-10-28T00:10:22.862Z,11.57
2022-10-28T00:12:49.756Z,12.30
2022-10-28T00:15:16.700Z,13.97
2022-10-28T00:17:44.004Z,12.07
2022-10-28T00:20:11.506Z,12.60
2022-10-28T00:22:38.473Z,12.20
2022-10-28T00:25:05.732Z,10.73
2022-10-28T00:27:32.856Z,12.03
2022-10-28T00:29:59.934Z,11.07
2022-10-28T00:32:28.538Z,11.10
2022-10-28T00:34:56.370Z,10.70
2022-10-28T00:37:23.122Z,12.47
2022-10-28T00:39:50.088Z,8.73
2022-10-28T00:42:21.475Z,9.90
2022-10-28T00:44:58.818Z,11.37
2022-10-28T00:47:39.668Z,11.50
2022-10-28T00:50:24.009Z,11.60
2022-10-28T00:52:54.967Z,11.27
2022-10-28T00:55:22.157Z,11.40
2022-10-28T00:57:49.453Z,11.40
2022-10-28T01:00:16.757Z,11.63
2022-10-28T01:02:45.993Z,12.67
2022-10-28T01:05:14.953Z,12.13
2022-10-28T01:07:42.564Z,11.93
2022-10-28T01:10:10.458Z,13.07
2022-10-28T01:12:49.375Z,11.67
2022-10-28T01:15:37.059Z,11.77
2022-10-28T01:18:13.552Z,11.50
2022-10-28T01:21:09.240Z,11.00
2022-10-28T01:23:46.488Z,10.73
2022-10-28T01:26:39.698Z,11.30
2022-10-28T01:29:32.895Z,10.40
2022-10-28T01:32:04.912Z,10.73
2022-10-28T01:34:36.381Z,10.30
2022-10-28T01:37:13.909Z,11.00
2022-10-28T01:39:45.796Z,9.67
2022-10-28T01:42:18.843Z,10.60
2022-10-28T01:44:51.228Z,9.77
2022-10-28T01:47:23.281Z,9.67
2022-10-28T01:49:55.571Z,7.70
2022-10-28T01:52:25.945Z,8.27
2022-10-28T01:54:56.965Z,8.03
2022-10-28T01:57:25.891Z,8.50
2022-10-28T01:59:53.510Z,7.97
2022-10-28T02:02:20.853Z,8.90
2022-10-28T02:04:47.795Z,8.00
2022-10-28T02:07:15.199Z,8.00
2022-10-28T02:09:56.368Z,8.83
2022-10-28T02:12:26.585Z,8.97
2022-10-28T02:15:18.394Z,9.63
2022-10-28T02:17:56.928Z,9.10
2022-10-28T02:20:33.245Z,10.43
2022-10-28T02:23:10.993Z,9.17
2022-10-28T02:25:43.201Z,8.70
2022-10-28T02:28:13.954Z,9.80
2022-10-28T02:30:46.475Z,9.97
2022-10-28T02:33:18.559Z,10.03
2022-10-28T02:35:49.690Z,9.47
2022-10-28T02:38:20.755Z,8.70
2022-10-28T02:43:27.727Z,9.83
2022-10-28T02:45:59.917Z,9.53
2022-10-28T02:48:31.510Z,8.37
2022-10-28T02:51:04.401Z,10.97
2022-10-28T02:53:36.963Z,10.50
2022-10-28T02:56:06.089Z,9.43
2022-10-28T02:58:39.358Z,8.63
2022-10-28T03:01:06.572Z,9.90
2022-10-28T03:03:33.904Z,11.10
2022-10-28T03:06:00.797Z,10.90
2022-10-28T03:08:27.744Z,8.63
2022-10-28T03:10:54.676Z,9.67
2022-10-28T03:13:21.612Z,8.73
2022-10-28T03:15:48.608Z,9.20
2022-10-28T03:18:15.537Z,11.23
2022-10-28T03:20:42.836Z,10.30
2022-10-28T03:23:09.740Z,9.97
2022-10-28T03:25:36.620Z,9.83
2022-10-28T03:28:03.581Z,10.60
2022-10-28T03:30:30.506Z,10.70
2022-10-28T03:32:57.460Z,10.70
2022-10-28T03:35:24.394Z,10.50
2022-10-28T03:37:51.620Z,12.03
2022-10-28T03:40:18.616Z,12.47
2022-10-28T03:42:45.496Z,12.03
2022-10-28T03:45:12.589Z,12.23
2022-10-28T03:47:40.016Z,12.77
2022-10-28T03:50:07.556Z,11.87
2022-10-28T03:52:34.487Z,12.40
2022-10-28T03:55:02.149Z,7.93
2022-10-28T03:57:30.333Z,10.30
2022-10-28T03:59:59.374Z,11.30
2022-10-28T04:02:26.577Z,11.87
2022-10-28T04:04:53.707Z,11.20
2022-10-28T04:07:20.585Z,14.20
2022-10-28T04:09:49.209Z,12.53
2022-10-28T04:12:16.705Z,13.03
2022-10-28T04:14:43.626Z,13.57
2022-10-28T04:17:10.744Z,13.60
2022-10-28T04:19:37.661Z,12.17
2022-10-28T04:22:04.564Z,14.27
2022-10-28T04:24:31.493Z,13.97
2022-10-28T04:26:58.359Z,9.27
2022-10-28T04:29:25.614Z,13.87
2022-10-28T04:31:52.729Z,12.17
2022-10-28T04:34:19.666Z,12.97
2022-10-28T04:36:46.557Z,12.17
2022-10-28T04:39:13.473Z,8.47
2022-10-28T04:41:40.438Z,10.93
2022-10-28T04:44:07.340Z,12.60
2022-10-28T04:46:34.620Z,12.87
2022-10-28T04:49:01.540Z,12.27
2022-10-28T04:51:28.449Z,13.83
2022-10-28T04:53:55.336Z,14.17
2022-10-28T04:56:22.306Z,11.13
2022-10-28T04:58:49.192Z,13.17
2022-10-28T05:01:16.329Z,13.73
2022-10-28T05:03:43.689Z,15.47
2022-10-28T05:06:10.577Z,12.43
2022-10-28T05:08:37.496Z,12.20
2022-10-28T05:11:04.506Z,14.07
2022-10-28T05:13:31.422Z,15.03
2022-10-28T05:15:58.326Z,14.17
2022-10-28T05:18:25.244Z,10.43
2022-10-28T05:20:54.240Z,13.43
2022-10-28T05:23:22.145Z,14.80
2022-10-28T05:25:50.736Z,13.33
2022-10-28T05:28:17.878Z,11.33
2022-10-28T05:30:44.934Z,14.40
2022-10-28T05:33:11.896Z,16.30
2022-10-28T05:35:38.965Z,16.67
2022-10-28T05:38:06.838Z,17.47
2022-10-28T05:40:33.977Z,15.70
2022-10-28T05:43:01.217Z,17.27
2022-10-28T05:45:30.827Z,13.83
2022-10-28T05:47:57.790Z,12.50
2022-10-28T05:50:25.037Z,16.37
2022-10-28T05:52:53.451Z,16.00
2022-10-28T05:55:22.422Z,15.47
2022-10-28T05:57:50.328Z,15.87
2022-10-28T06:00:18.462Z,16.63
2022-10-28T06:02:45.363Z,13.30
2022-10-28T06:05:12.425Z,12.47
2022-10-28T06:07:40.022Z,14.90
2022-10-28T06:10:09.015Z,13.37
2022-10-28T06:12:34.931Z,14.27
2022-10-28T06:15:02.133Z,13.93
2022-10-28T06:17:29.521Z,16.47
2022-10-28T06:19:56.546Z,16.90
2022-10-28T06:22:23.546Z,16.83
2022-10-28T06:24:50.457Z,16.60
2022-10-28T06:27:17.447Z,14.87
2022-10-28T06:29:44.675Z,16.07
2022-10-28T06:32:11.652Z,14.07
2022-10-28T06:34:38.565Z,15.60
2022-10-28T06:37:05.477Z,17.03
2022-10-28T06:39:32.659Z,15.80
2022-10-28T06:41:59.829Z,14.83
2022-10-28T06:44:26.872Z,14.80
2022-10-28T06:46:56.599Z,13.50
2022-10-28T06:49:23.575Z,13.50
2022-10-28T06:51:50.514Z,19.87
2022-10-28T06:54:17.872Z,16.37
2022-10-28T06:56:45.125Z,17.17
2022-10-28T06:59:12.014Z,17.33
2022-10-28T07:01:38.990Z,16.93
2022-10-28T07:04:06.752Z,18.77
2022-10-28T07:06:33.715Z,19.43
2022-10-28T07:09:00.685Z,13.97
2022-10-28T07:11:27.617Z,16.97
2022-10-28T07:13:54.629Z,16.67
2022-10-28T07:16:21.635Z,15.43
2022-10-28T07:18:48.621Z,14.83
2022-10-28T07:21:17.605Z,14.43
2022-10-28T07:23:44.517Z,13.20
2022-10-28T07:26:11.429Z,10.63
2022-10-28T07:28:38.418Z,9.03
2022-10-28T07:31:05.542Z,9.17
2022-10-28T07:33:32.492Z,8.77
2022-10-28T07:35:59.524Z,8.07
2022-10-28T07:38:27.017Z,8.83
2022-10-28T07:40:54.079Z,7.10
2022-10-28T07:43:21.097Z,6.97
2022-10-28T07:45:48.185Z,7.03
2022-10-28T07:48:15.441Z,6.33
2022-10-28T07:50:42.440Z,5.80
2022-10-28T07:53:09.519Z,5.43
2022-10-28T07:55:37.426Z,5.50
2022-10-28T07:58:04.321Z,5.30
2022-10-28T08:00:31.323Z,4.70
2022-10-28T08:02:58.282Z,5.70
2022-10-28T08:05:25.187Z,4.73
2022-10-28T08:07:52.547Z,4.33
2022-10-28T08:10:19.818Z,4.00
2022-10-28T08:12:47.083Z,5.03
2022-10-28T08:15:16.107Z,4.93
2022-10-28T08:17:43.063Z,4.80
2022-10-28T08:20:10.112Z,4.60
2022-10-28T08:22:36.999Z,4.03
2022-10-28T08:25:04.046Z,3.77
2022-10-28T08:27:31.360Z,4.40
2022-10-28T08:29:58.605Z,4.07
2022-10-28T08:32:25.571Z,3.50
2022-10-28T08:34:52.575Z,3.60
2022-10-28T08:37:19.708Z,3.40
2022-10-28T08:39:46.705Z,3.87
2022-10-28T08:42:26.514Z,3.40
2022-10-28T08:45:16.022Z,2.93
2022-10-28T08:47:49.984Z,3.37
2022-10-28T08:50:20.092Z,4.10
2022-10-28T08:52:53.604Z,3.57
2022-10-28T08:55:24.666Z,3.57
2022-10-28T08:57:54.543Z,3.83
2022-10-28T09:00:25.147Z,3.60
2022-10-28T09:03:06.652Z,3.53
2022-10-28T09:05:33.572Z,3.20
2022-10-28T09:08:02.524Z,3.57
2022-10-28T09:10:49.339Z,3.47
2022-10-28T09:13:28.024Z,3.57
2022-10-28T09:16:05.001Z,3.73
2022-10-28T09:18:46.396Z,3.40
2022-10-28T09:21:19.060Z,3.30
2022-10-28T09:23:52.200Z,3.43
2022-10-28T09:26:28.783Z,3.63
2022-10-28T09:31:45.951Z,3.10
2022-10-28T09:34:23.710Z,3.30
2022-10-28T09:36:53.864Z,4.70
2022-10-28T09:39:27.716Z,5.80
2022-10-28T09:41:57.088Z,4.93
2022-10-28T09:44:32.836Z,3.40
2022-10-28T09:47:03.008Z,3.43
2022-10-28T09:49:34.326Z,3.77
2022-10-28T09:52:10.968Z,3.43
2022-10-28T09:54:43.808Z,3.57
2022-10-28T09:57:13.718Z,3.83
2022-10-28T09:59:43.613Z,4.10
2022-10-28T10:02:26.561Z,3.50
2022-10-28T10:04:53.756Z,3.37
2022-10-28T10:07:30.872Z,3.10
2022-10-28T10:10:01.015Z,4.20
2022-10-28T10:12:30.707Z,3.07
2022-10-28T10:14:59.601Z,3.70
2022-10-28T10:17:33.584Z,3.33
2022-10-28T10:20:03.242Z,4.40
2022-10-28T10:22:32.907Z,3.93
2022-10-28T10:24:59.787Z,3.60
2022-10-28T10:27:28.645Z,3.40
2022-10-28T10:29:57.610Z,3.00
2022-10-28T10:32:27.512Z,2.80
2022-10-28T10:35:02.392Z,3.70
2022-10-28T10:37:33.155Z,3.10
2022-10-28T10:40:11.406Z,2.40
2022-10-28T10:42:46.532Z,2.43
2022-10-28T10:45:26.130Z,3.50
2022-10-28T10:48:13.788Z,2.87
2022-10-28T10:50:40.957Z,2.97
2022-10-28T10:53:19.115Z,2.87
2022-10-28T10:55:51.193Z,2.47
2022-10-28T10:58:25.161Z,2.23
2022-10-28T11:00:54.153Z,2.57
2022-10-28T11:03:25.529Z,2.10
2022-10-28T11:06:05.450Z,2.50
2022-10-28T11:08:42.568Z,2.40
2022-10-28T11:11:13.845Z,2.47
2022-10-28T11:13:45.171Z,2.23
2022-10-28T11:16:20.813Z,2.70
2022-10-28T11:18:52.038Z,2.10
2022-10-28T11:21:42.259Z,2.67
2022-10-28T11:24:41.244Z,2.37
2022-10-28T11:27:17.282Z,2.50
2022-10-28T11:29:45.186Z,2.63
2022-10-28T11:32:43.983Z,2.83
2022-10-28T11:35:52.379Z,2.38
2022-10-28T11:38:36.466Z,2.30
2022-10-28T11:41:17.788Z,2.33
2022-10-28T11:43:54.590Z,1.75
2022-10-28T11:46:36.337Z,3.35
2022-10-28T11:49:30.133Z,2.38
2022-10-28T11:52:04.943Z,2.10
2022-10-28T11:54:44.276Z,2.55
2022-10-28T11:57:13.947Z,2.40
2022-10-28T12:00:06.756Z,2.37
2022-10-28T12:03:01.141Z,2.70
2022-10-28T12:05:34.014Z,2.13
2022-10-28T12:08:10.683Z,2.50
2022-10-28T12:10:50.973Z,2.43
2022-10-28T12:13:27.676Z,2.97
2022-10-28T12:16:00.498Z,2.37
2022-10-28T12:18:33.152Z,2.17
2022-10-28T12:21:04.907Z,3.23
2022-10-28T12:23:34.518Z,2.77
2022-10-28T12:26:06.152Z,2.33
2022-10-28T12:28:38.691Z,2.60
2022-10-28T12:31:09.445Z,2.60
2022-10-28T12:33:43.804Z,2.47
2022-10-28T12:36:21.261Z,2.50
2022-10-28T12:39:00.013Z,2.93
2022-10-28T12:41:31.832Z,2.30
2022-10-28T12:44:05.094Z,2.80
2022-10-28T12:49:20.641Z,2.83
2022-10-28T12:51:47.907Z,4.73
2022-10-28T12:54:23.563Z,3.30
2022-10-28T12:57:01.651Z,2.90
2022-10-28T12:59:32.273Z,2.87
2022-10-28T13:02:00.503Z,2.50
2022-10-28T13:04:28.049Z,2.60
2022-10-28T13:07:02.293Z,2.40
2022-10-28T13:09:48.605Z,2.47
2022-10-28T13:12:38.005Z,2.60
2022-10-28T13:15:46.718Z,2.77
2022-10-28T13:18:40.750Z,2.47
2022-10-28T13:21:17.519Z,2.67
2022-10-28T13:23:51.631Z,3.00
2022-10-28T13:26:25.531Z,2.63
2022-10-28T13:28:56.262Z,3.03
2022-10-28T13:31:23.587Z,3.63
2022-10-28T13:33:55.388Z,2.20
2022-10-28T13:36:26.954Z,2.70
2022-10-28T13:38:55.882Z,2.70
2022-10-28T13:41:37.807Z,3.10
2022-10-28T13:44:26.641Z,2.50
2022-10-28T13:47:24.712Z,2.67
2022-10-28T13:50:15.047Z,3.53
2022-10-28T13:52:42.621Z,2.50
2022-10-28T13:55:23.796Z,2.47
2022-10-28T13:57:58.123Z,2.77
2022-10-28T14:00:38.726Z,2.40
2022-10-28T14:03:15.428Z,2.60
2022-10-28T14:05:54.116Z,2.33
2022-10-28T14:08:26.338Z,2.80
2022-10-28T14:11:03.546Z,2.57
2022-10-28T14:13:34.130Z,3.07
2022-10-28T14:16:24.551Z,2.87
2022-10-28T14:18:57.098Z,3.17
2022-10-28T14:21:24.379Z,2.90
2022-10-28T14:24:30.163Z,2.83
2022-10-28T14:27:42.980Z,3.23
2022-10-28T14:30:21.904Z,2.70
2022-10-28T14:33:01.932Z,2.90
2022-10-28T14:35:33.515Z,3.03
2022-10-28T14:38:38.751Z,2.90
2022-10-28T14:41:15.047Z,2.70
2022-10-28T14:43:53.873Z,2.87
2022-10-28T14:46:33.443Z,2.53
2022-10-28T14:49:03.625Z,3.07
2022-10-28T14:51:38.121Z,2.87
2022-10-28T14:54:09.750Z,3.07
2022-10-28T14:56:37.186Z,2.83
2022-10-28T14:59:17.468Z,3.97
2022-10-28T15:01:59.078Z,3.33
2022-10-28T15:04:26.389Z,2.53
2022-10-28T15:06:53.583Z,3.63
2022-10-28T15:09:21.777Z,3.07
2022-10-28T15:11:51.920Z,2.97
2022-10-28T15:14:27.685Z,3.27
2022-10-28T15:16:54.910Z,3.37
2022-10-28T15:19:24.485Z,2.93
2022-10-28T15:22:15.426Z,3.20
2022-10-28T15:24:44.768Z,3.30
2022-10-28T15:27:14.603Z,3.50
2022-10-28T15:29:42.296Z,3.43
2022-10-28T15:32:24.635Z,3.30
2022-10-28T15:34:51.597Z,3.83
2022-10-28T15:37:20.667Z,4.37
2022-10-28T15:39:48.562Z,4.77
2022-10-28T15:42:38.605Z,7.20
2022-10-28T15:45:06.699Z,3.17
2022-10-28T15:47:36.559Z,3.10
2022-10-28T15:50:20.589Z,3.27
2022-10-28T15:52:49.385Z,3.80
2022-10-28T15:56:02.816Z,3.97
2022-10-28T15:58:35.175Z,4.40
2022-10-28T16:01:02.347Z,5.00
2022-10-28T16:03:42.111Z,3.70
2022-10-28T16:06:21.420Z,3.83
2022-10-28T16:08:48.558Z,3.63
2022-10-28T16:11:18.367Z,4.00
2022-10-28T16:13:48.147Z,4.13
2022-10-28T16:16:21.988Z,4.47
2022-10-28T16:18:51.612Z,4.17
2022-10-28T16:21:20.454Z,4.03
2022-10-28T16:23:49.037Z,4.47
2022-10-28T16:26:15.874Z,4.47
2022-10-28T16:28:45.239Z,4.23
2022-10-28T16:31:15.785Z,4.10
2022-10-28T16:33:42.850Z,4.83
2022-10-28T16:36:10.253Z,4.50
2022-10-28T16:38:37.183Z,4.57
2022-10-28T16:41:05.406Z,5.13
2022-10-28T16:43:32.501Z,4.70
2022-10-28T16:46:00.291Z,5.40
2022-10-28T16:48:28.626Z,5.23
2022-10-28T16:50:58.680Z,5.13
2022-10-28T16:53:26.279Z,5.33
2022-10-28T16:55:58.107Z,5.60
2022-10-28T16:58:26.939Z,4.53
2022-10-28T17:00:54.061Z,4.73
2022-10-28T17:03:20.957Z,4.90
2022-10-28T17:05:47.896Z,4.57
2022-10-28T17:08:14.868Z,4.83
2022-10-28T17:10:43.125Z,5.57
2022-10-28T17:13:11.843Z,6.20
2022-10-28T17:15:38.907Z,5.13
2022-10-28T17:18:06.157Z,4.83
2022-10-28T17:20:33.146Z,5.17
2022-10-28T17:23:00.032Z,7.33
2022-10-28T17:25:27.007Z,5.47
2022-10-28T17:27:54.837Z,5.27
2022-10-28T17:30:22.287Z,5.33
2022-10-28T17:32:50.612Z,5.33
2022-10-28T17:35:17.572Z,5.47
2022-10-28T17:37:44.438Z,5.03
2022-10-28T17:40:11.428Z,5.63
2022-10-28T17:42:38.504Z,5.53
2022-10-28T17:45:06.780Z,4.83
2022-10-28T17:47:33.928Z,5.40
2022-10-28T17:50:00.834Z,6.03
2022-10-28T17:52:28.102Z,4.60
2022-10-28T17:54:55.048Z,5.50
2022-10-28T17:57:21.959Z,5.87
2022-10-28T17:59:48.843Z,5.50
2022-10-28T18:02:16.343Z,5.57
2022-10-28T18:04:43.499Z,5.20
2022-10-28T18:07:10.369Z,5.90
2022-10-28T18:09:39.785Z,5.93
2022-10-28T18:12:06.877Z,5.20
2022-10-28T18:14:34.066Z,5.47
2022-10-28T18:17:01.044Z,6.20
2022-10-28T18:19:28.413Z,5.60
2022-10-28T18:21:55.468Z,6.20
2022-10-28T18:24:25.943Z,5.90
2022-10-28T18:26:55.570Z,5.63
2022-10-28T18:29:22.518Z,6.23
2022-10-28T18:31:49.428Z,5.70
2022-10-28T18:34:16.458Z,6.47
2022-10-28T18:36:43.893Z,5.80
2022-10-28T18:39:10.884Z,6.70
2022-10-28T18:41:41.239Z,6.40
2022-10-28T18:44:11.582Z,6.03
2022-10-28T18:46:38.659Z,6.53
2022-10-28T18:49:05.955Z,5.70
2022-10-28T18:51:33.187Z,6.17
2022-10-28T18:54:00.483Z,6.83
2022-10-28T18:56:28.735Z,6.10
2022-10-28T18:58:55.980Z,5.47
2022-10-28T19:01:24.374Z,5.83
2022-10-28T19:03:52.067Z,5.90
2022-10-28T19:06:19.804Z,6.63
2022-10-28T19:08:50.738Z,5.70
2022-10-28T19:11:19.494Z,5.87
2022-10-28T19:13:46.572Z,6.40
2022-10-28T19:16:13.754Z,5.93
2022-10-28T19:18:40.736Z,5.90
2022-10-28T19:21:10.370Z,6.30
2022-10-28T19:23:37.303Z,6.23
2022-10-28T19:26:05.062Z,5.60
2022-10-28T19:28:38.657Z,6.03
2022-10-28T19:31:06.839Z,6.07
2022-10-28T19:33:33.935Z,5.43
2022-10-28T19:36:02.536Z,6.10
2022-10-28T19:38:33.050Z,6.20
2022-10-28T19:41:07.805Z,5.93
2022-10-28T19:43:34.931Z,6.07
2022-10-28T19:46:07.859Z,6.60
2022-10-28T19:48:34.751Z,6.10
2022-10-28T19:51:01.770Z,5.73
2022-10-28T19:53:28.633Z,6.00
2022-10-28T19:55:56.554Z,5.73
2022-10-28T19:58:23.441Z,6.00
2022-10-28T20:00:50.335Z,6.50
2022-10-28T20:03:17.595Z,5.93
2022-10-28T20:05:44.449Z,5.93
2022-10-28T20:08:11.449Z,5.80
2022-10-28T20:10:39.511Z,6.23
2022-10-28T20:13:07.006Z,6.00
2022-10-28T20:15:33.855Z,5.77
2022-10-28T20:18:00.756Z,6.90
2022-10-28T20:20:28.007Z,6.13
2022-10-28T20:22:55.143Z,6.03
2022-10-28T20:25:22.434Z,5.67
2022-10-28T20:27:50.271Z,6.20
2022-10-28T20:30:17.205Z,6.03
2022-10-28T20:32:44.088Z,5.87
2022-10-28T20:35:11.075Z,5.87
2022-10-28T20:37:38.347Z,6.03
2022-10-28T20:40:07.598Z,5.80
2022-10-28T20:42:34.699Z,6.80
2022-10-28T20:45:01.762Z,5.80
2022-10-28T20:47:28.629Z,6.20
2022-10-28T20:49:55.745Z,6.17
2022-10-28T20:52:27.212Z,6.67
2022-10-28T20:54:58.082Z,7.13
2022-10-28T20:57:25.197Z,4.73
2022-10-28T20:59:52.402Z,6.27
2022-10-28T21:02:19.438Z,6.07
2022-10-28T21:04:46.434Z,6.73
2022-10-28T21:07:13.372Z,6.00
2022-10-28T21:09:40.279Z,6.33
2022-10-28T21:12:07.845Z,6.10
2022-10-28T21:14:35.058Z,6.50
2022-10-28T21:17:02.555Z,6.87
2022-10-28T21:19:29.515Z,6.77
2022-10-28T21:21:56.386Z,6.90
2022-10-28T21:24:23.377Z,7.40
2022-10-28T21:26:52.180Z,5.80
2022-10-28T21:29:19.683Z,6.37
2022-10-28T21:31:46.554Z,7.03
2022-10-28T21:34:13.415Z,6.10
2022-10-28T21:36:40.472Z,6.77
2022-10-28T21:39:08.538Z,6.73
2022-10-28T21:41:35.404Z,7.00
2022-10-28T21:44:04.804Z,7.30
2022-10-28T21:46:32.113Z,6.77
2022-10-28T21:49:00.168Z,6.83
2022-10-28T21:51:27.051Z,6.67
2022-10-28T21:53:53.930Z,6.77
2022-10-28T21:56:20.886Z,6.37
2022-10-28T21:58:48.835Z,6.20
2022-10-28T22:01:17.610Z,6.43
2022-10-28T22:03:44.991Z,8.23
2022-10-28T22:06:11.873Z,6.60
2022-10-28T22:08:38.969Z,7.17
2022-10-28T22:11:08.040Z,6.37
2022-10-28T22:13:35.079Z,6.20
2022-10-28T22:16:03.967Z,6.63
2022-10-28T22:18:32.463Z,6.47
2022-10-28T22:21:05.153Z,6.30
2022-10-28T22:23:32.157Z,6.30
2022-10-28T22:26:01.413Z,6.20
2022-10-28T22:28:28.918Z,6.20
2022-10-28T22:30:59.414Z,6.50
2022-10-28T22:33:26.754Z,6.50
2022-10-28T22:35:56.994Z,6.20
2022-10-28T22:38:25.123Z,6.07
2022-10-28T22:41:01.462Z,5.63
2022-10-28T22:43:30.212Z,6.00
2022-10-28T22:45:57.570Z,6.30
2022-10-28T22:48:24.504Z,5.30
2022-10-28T22:50:51.555Z,6.20
2022-10-28T22:53:18.806Z,5.73
2022-10-28T22:55:47.089Z,5.37
2022-10-28T22:58:14.225Z,6.03
2022-10-28T23:00:41.149Z,5.70
2022-10-28T23:03:08.143Z,5.50
2022-10-28T23:05:35.166Z,5.37
2022-10-28T23:08:02.061Z,5.53
2022-10-28T23:10:29.279Z,5.30
2022-10-28T23:12:56.830Z,6.17
2022-10-28T23:15:24.312Z,5.47
2022-10-28T23:17:51.422Z,5.10
2022-10-28T23:20:18.365Z,6.00
2022-10-28T23:22:45.603Z,6.33
2022-10-28T23:25:12.806Z,5.63
2022-10-28T23:27:39.886Z,5.50
2022-10-28T23:30:09.099Z,6.03
2022-10-28T23:32:36.172Z,11.13
2022-10-28T23:35:03.708Z,6.53
2022-10-28T23:37:32.681Z,6.23
2022-10-28T23:39:59.739Z,6.67
2022-10-28T23:42:26.644Z,18.63
2022-10-28T23:44:53.584Z,6.43
2022-10-28T23:47:20.822Z,8.27
2022-10-28T23:49:47.920Z,6.53
2022-10-28T23:52:16.337Z,5.67
2022-10-28T23:54:43.471Z,5.70
2022-10-28T23:57:10.412Z,5.73
2022-10-28T23:59:37.352Z,6.20
